Ashley, Michigan
Current Conditions -  °F | °C
As of 7:12 AM on Saturday 25 Oct 2014 (Local Time) from KAMN Reporting Station
Haze Haze  
Wind Chill:   Ceiling: 1300
Heat Index:   Visibility: 5mi
Dew Point:   Wind: 7mph
Humidity: 95%   Direction: 220°SW
Pressure: 29.81"   Gusts: NA
Location:  43.19°N, 84.47°W
Report Text: KAMN 251112Z AUTO 22006KT 5SM BR BKN013 BKN026 10/09 A2981 RMK AO2 T00950088
Loading
Personal Weather Stations






























Interactive Weather Map
Tropical Storm Tracking
New forecast layout! Learn more

10-Day Weather Forecast

Advertisements
Track Severe Weather on mobile